Terminal Aerodrome Forecast
Issued by NWS Blacksburg, VA

Home | Current Version | Previous Version | Text Only | Print | Product List | Glossary On
Versions: 1 2 3 4 5 6 7 8 9 10 11 12 13 14 15 16
000
FTUS41 KRNK 232333
TAFDAN
TAF
KDAN 232333Z 2400/2424 24004KT P6SM BKN120 OVC250
     FM240600 24004KT P6SM BKN050 BKN120
     FM241300 28007KT P6SM SCT060 SCT250=

USA.gov is the U.S. government's official web portal to all federal, state and local government web resources and services.